KCHA/CHA METAR and TAF weather

Enter ICAO airport designator
Station Type Date Time Source
KCHA METAR 2019/10/18 05:53 UTC NOAA

KCHA 180553Z AUTO 00000KT 10SM CLR 09/05 A3002 RMK AO2 SLP163 T00890050 10150 20089 53008


Station Type Date Time Source
KCHA Decoded METAR 2019/10/18 05:53 UTC NOAA

LOVELL FIELD, TN, United States (KCHA) 35-02N 085-12W 210M
Oct 18, 2019 - 01:53 AM EDT / 2019.10.18 0553 UTC
Wind: Calm:0
Visibility: 10 mile(s):0
Sky conditions: clear
Temperature: 48.0 F (8.9 C)
Dew Point: 41.0 F (5.0 C)
Relative Humidity: 76%
Pressure (altimeter): 30.02 in. Hg (1016 hPa)
Pressure tendency: 0.02 inches (0.8 hPa) higher than three hours ago
ob: KCHA 180553Z AUTO 00000KT 10SM CLR 09/05 A3002 RMK AO2 SLP163 T00890050 10150 20089 53008
cycle: 6

Station Type Date Time Source
KCHA TAF 2019/10/18 06:30 UTC NOAA

TAF KCHA 180528Z 1806/1906 VRB03KT P6SM SKC
FM181600 03005KT P6SM FEW250

Example: see airport list